sensor_id;sensor_type;location;lat;lon;timestamp;P1;durP1;ratioP1;P2;durP2;ratioP2
52386;SDS011;38317;53.084;6.960;2022-11-14T00:00:54;22.08;;;11.80;;
52386;SDS011;38317;53.084;6.960;2022-11-14T00:03:20;20.58;;;12.48;;
52386;SDS011;38317;53.084;6.960;2022-11-14T00:05:45;20.88;;;12.10;;
52386;SDS011;38317;53.084;6.960;2022-11-14T00:08:21;21.23;;;11.13;;
52386;SDS011;38317;53.084;6.960;2022-11-14T00:10:49;21.85;;;10.93;;
52386;SDS011;38317;53.084;6.960;2022-11-14T00:13:16;22.38;;;12.75;;
52386;SDS011;38317;53.084;6.960;2022-11-14T00:15:43;26.25;;;15.55;;
52386;SDS011;38317;53.084;6.960;2022-11-14T00:18:12;25.48;;;15.27;;
52386;SDS011;38317;53.084;6.960;2022-11-14T00:20:37;28.33;;;16.98;;
52386;SDS011;38317;53.084;6.960;2022-11-14T00:23:03;26.05;;;15.63;;
52386;SDS011;38317;53.084;6.960;2022-11-14T00:25:29;27.15;;;14.40;;
52386;SDS011;38317;53.084;6.960;2022-11-14T00:27:55;28.45;;;17.00;;
52386;SDS011;38317;53.084;6.960;2022-11-14T00:30:22;30.17;;;17.25;;
52386;SDS011;38317;53.084;6.960;2022-11-14T00:32:48;26.45;;;16.60;;
52386;SDS011;38317;53.084;6.960;2022-11-14T00:35:14;27.70;;;16.85;;
52386;SDS011;38317;53.084;6.960;2022-11-14T00:37:40;28.42;;;16.85;;
52386;SDS011;38317;53.084;6.960;2022-11-14T00:40:06;30.45;;;18.55;;
52386;SDS011;38317;53.084;6.960;2022-11-14T00:42:32;34.03;;;19.85;;
52386;SDS011;38317;53.084;6.960;2022-11-14T00:44:58;33.10;;;17.90;;
52386;SDS011;38317;53.084;6.960;2022-11-14T00:47:24;33.53;;;20.50;;
52386;SDS011;38317;53.084;6.960;2022-11-14T00:49:50;30.92;;;19.52;;
52386;SDS011;38317;53.084;6.960;2022-11-14T00:52:16;29.10;;;17.63;;
52386;SDS011;38317;53.084;6.960;2022-11-14T00:54:41;33.53;;;19.77;;
52386;SDS011;38317;53.084;6.960;2022-11-14T00:57:07;32.45;;;19.63;;
52386;SDS011;38317;53.084;6.960;2022-11-14T00:59:33;32.30;;;19.55;;
52386;SDS011;38317;53.084;6.960;2022-11-14T01:01:58;34.10;;;19.33;;
52386;SDS011;38317;53.084;6.960;2022-11-14T01:04:24;30.20;;;19.23;;
52386;SDS011;38317;53.084;6.960;2022-11-14T01:06:50;30.45;;;17.25;;
52386;SDS011;38317;53.084;6.960;2022-11-14T01:09:16;30.75;;;19.50;;
52386;SDS011;38317;53.084;6.960;2022-11-14T01:11:41;30.85;;;17.98;;
52386;SDS011;38317;53.084;6.960;2022-11-14T01:14:07;37.33;;;21.88;;
52386;SDS011;38317;53.084;6.960;2022-11-14T01:16:33;34.33;;;17.95;;
52386;SDS011;38317;53.084;6.960;2022-11-14T01:19:00;33.65;;;19.00;;
52386;SDS011;38317;53.084;6.960;2022-11-14T01:21:27;33.28;;;19.77;;
52386;SDS011;38317;53.084;6.960;2022-11-14T01:23:53;34.65;;;21.33;;
52386;SDS011;38317;53.084;6.960;2022-11-14T01:26:19;32.42;;;18.95;;
52386;SDS011;38317;53.084;6.960;2022-11-14T01:28:44;29.65;;;17.40;;
52386;SDS011;38317;53.084;6.960;2022-11-14T01:31:12;30.85;;;18.55;;
52386;SDS011;38317;53.084;6.960;2022-11-14T01:33:38;30.35;;;17.67;;
52386;SDS011;38317;53.084;6.960;2022-11-14T01:36:04;28.52;;;15.32;;
52386;SDS011;38317;53.084;6.960;2022-11-14T01:38:31;27.00;;;16.33;;
52386;SDS011;38317;53.084;6.960;2022-11-14T01:40:57;31.67;;;17.00;;
52386;SDS011;38317;53.084;6.960;2022-11-14T01:43:24;30.80;;;18.13;;
52386;SDS011;38317;53.084;6.960;2022-11-14T01:45:58;31.83;;;18.10;;
52386;SDS011;38317;53.084;6.960;2022-11-14T01:53:37;30.13;;;18.27;;
52386;SDS011;38317;53.084;6.960;2022-11-14T01:56:03;31.25;;;18.30;;
52386;SDS011;38317;53.084;6.960;2022-11-14T01:58:32;32.45;;;18.35;;
52386;SDS011;38317;53.084;6.960;2022-11-14T02:01:00;30.90;;;17.15;;
52386;SDS011;38317;53.084;6.960;2022-11-14T02:03:27;33.20;;;18.95;;
52386;SDS011;38317;53.084;6.960;2022-11-14T02:05:53;31.45;;;17.02;;
52386;SDS011;38317;53.084;6.960;2022-11-14T02:08:20;30.05;;;15.43;;
52386;SDS011;38317;53.084;6.960;2022-11-14T02:10:46;30.88;;;19.05;;
52386;SDS011;38317;53.084;6.960;2022-11-14T02:13:12;31.45;;;17.73;;
52386;SDS011;38317;53.084;6.960;2022-11-14T02:15:38;31.48;;;17.73;;
52386;SDS011;38317;53.084;6.960;2022-11-14T02:18:04;33.17;;;17.23;;
52386;SDS011;38317;53.084;6.960;2022-11-14T02:20:32;31.73;;;18.83;;
52386;SDS011;38317;53.084;6.960;2022-11-14T02:23:00;36.95;;;19.23;;
52386;SDS011;38317;53.084;6.960;2022-11-14T02:25:26;34.88;;;19.35;;
52386;SDS011;38317;53.084;6.960;2022-11-14T02:27:52;33.60;;;18.42;;
52386;SDS011;38317;53.084;6.960;2022-11-14T02:30:20;34.50;;;20.30;;
52386;SDS011;38317;53.084;6.960;2022-11-14T02:32:47;36.45;;;20.67;;
52386;SDS011;38317;53.084;6.960;2022-11-14T02:35:13;32.92;;;19.13;;
52386;SDS011;38317;53.084;6.960;2022-11-14T02:37:39;33.08;;;17.10;;
52386;SDS011;38317;53.084;6.960;2022-11-14T02:40:05;33.67;;;20.20;;
52386;SDS011;38317;53.084;6.960;2022-11-14T02:42:31;35.30;;;21.80;;
52386;SDS011;38317;53.084;6.960;2022-11-14T02:44:57;38.53;;;21.15;;
52386;SDS011;38317;53.084;6.960;2022-11-14T02:47:22;35.60;;;20.65;;
52386;SDS011;38317;53.084;6.960;2022-11-14T02:49:49;36.40;;;21.20;;
52386;SDS011;38317;53.084;6.960;2022-11-14T02:52:15;35.67;;;20.48;;
52386;SDS011;38317;53.084;6.960;2022-11-14T02:54:41;34.70;;;20.77;;
52386;SDS011;38317;53.084;6.960;2022-11-14T02:57:07;37.17;;;21.00;;
52386;SDS011;38317;53.084;6.960;2022-11-14T02:59:33;37.83;;;21.73;;
52386;SDS011;38317;53.084;6.960;2022-11-14T03:01:59;38.17;;;21.38;;
52386;SDS011;38317;53.084;6.960;2022-11-14T03:04:24;36.40;;;21.27;;
52386;SDS011;38317;53.084;6.960;2022-11-14T03:06:50;38.92;;;22.63;;
52386;SDS011;38317;53.084;6.960;2022-11-14T03:09:16;36.88;;;21.25;;
52386;SDS011;38317;53.084;6.960;2022-11-14T03:11:42;41.05;;;23.25;;
52386;SDS011;38317;53.084;6.960;2022-11-14T03:14:08;40.20;;;22.55;;
52386;SDS011;38317;53.084;6.960;2022-11-14T03:16:34;37.17;;;23.02;;
52386;SDS011;38317;53.084;6.960;2022-11-14T03:18:59;34.67;;;22.33;;
52386;SDS011;38317;53.084;6.960;2022-11-14T03:21:26;33.15;;;21.10;;
52386;SDS011;38317;53.084;6.960;2022-11-14T03:23:52;36.95;;;19.73;;
52386;SDS011;38317;53.084;6.960;2022-11-14T03:26:18;36.17;;;21.90;;
52386;SDS011;38317;53.084;6.960;2022-11-14T03:28:44;36.58;;;21.42;;
52386;SDS011;38317;53.084;6.960;2022-11-14T03:31:10;36.25;;;22.83;;
52386;SDS011;38317;53.084;6.960;2022-11-14T03:33:37;35.33;;;20.73;;
52386;SDS011;38317;53.084;6.960;2022-11-14T03:36:03;34.45;;;20.95;;
52386;SDS011;38317;53.084;6.960;2022-11-14T03:38:30;35.22;;;21.63;;
52386;SDS011;38317;53.084;6.960;2022-11-14T03:40:59;32.60;;;20.80;;
52386;SDS011;38317;53.084;6.960;2022-11-14T03:43:28;30.83;;;18.17;;
52386;SDS011;38317;53.084;6.960;2022-11-14T03:45:58;33.25;;;19.92;;
52386;SDS011;38317;53.084;6.960;2022-11-14T03:48:25;32.40;;;18.95;;
52386;SDS011;38317;53.084;6.960;2022-11-14T03:50:52;31.80;;;18.60;;
52386;SDS011;38317;53.084;6.960;2022-11-14T03:53:18;30.08;;;18.27;;
52386;SDS011;38317;53.084;6.960;2022-11-14T03:55:43;27.50;;;16.50;;
52386;SDS011;38317;53.084;6.960;2022-11-14T03:58:09;31.30;;;19.52;;
52386;SDS011;38317;53.084;6.960;2022-11-14T04:00:35;29.95;;;18.10;;
52386;SDS011;38317;53.084;6.960;2022-11-14T04:03:00;29.08;;;18.67;;
52386;SDS011;38317;53.084;6.960;2022-11-14T04:05:26;32.83;;;17.58;;
52386;SDS011;38317;53.084;6.960;2022-11-14T04:07:52;31.92;;;20.30;;
52386;SDS011;38317;53.084;6.960;2022-11-14T04:10:18;32.17;;;19.50;;
52386;SDS011;38317;53.084;6.960;2022-11-14T04:12:50;27.40;;;16.98;;
52386;SDS011;38317;53.084;6.960;2022-11-14T04:15:17;29.08;;;18.10;;
52386;SDS011;38317;53.084;6.960;2022-11-14T04:17:44;28.95;;;17.80;;
52386;SDS011;38317;53.084;6.960;2022-11-14T04:20:11;25.50;;;15.48;;
52386;SDS011;38317;53.084;6.960;2022-11-14T04:22:38;30.17;;;17.23;;
52386;SDS011;38317;53.084;6.960;2022-11-14T04:25:05;31.13;;;17.90;;
52386;SDS011;38317;53.084;6.960;2022-11-14T04:27:31;29.25;;;17.42;;
52386;SDS011;38317;53.084;6.960;2022-11-14T04:29:57;30.23;;;18.35;;
52386;SDS011;38317;53.084;6.960;2022-11-14T04:32:23;26.25;;;16.70;;
52386;SDS011;38317;53.084;6.960;2022-11-14T04:34:48;29.88;;;18.35;;
52386;SDS011;38317;53.084;6.960;2022-11-14T04:37:14;28.17;;;17.75;;
52386;SDS011;38317;53.084;6.960;2022-11-14T04:39:40;28.42;;;16.63;;
52386;SDS011;38317;53.084;6.960;2022-11-14T04:42:05;32.92;;;19.38;;
52386;SDS011;38317;53.084;6.960;2022-11-14T04:44:31;31.10;;;17.38;;
52386;SDS011;38317;53.084;6.960;2022-11-14T04:46:57;33.45;;;18.52;;
52386;SDS011;38317;53.084;6.960;2022-11-14T04:49:22;33.40;;;18.15;;
52386;SDS011;38317;53.084;6.960;2022-11-14T04:51:48;33.15;;;19.70;;
52386;SDS011;38317;53.084;6.960;2022-11-14T04:54:14;34.63;;;20.08;;
52386;SDS011;38317;53.084;6.960;2022-11-14T04:56:40;32.70;;;20.00;;
52386;SDS011;38317;53.084;6.960;2022-11-14T04:59:06;35.92;;;20.58;;
52386;SDS011;38317;53.084;6.960;2022-11-14T05:01:32;35.17;;;20.85;;
52386;SDS011;38317;53.084;6.960;2022-11-14T05:03:57;31.77;;;18.55;;
52386;SDS011;38317;53.084;6.960;2022-11-14T05:06:24;31.60;;;17.52;;
52386;SDS011;38317;53.084;6.960;2022-11-14T05:08:50;32.53;;;19.90;;
52386;SDS011;38317;53.084;6.960;2022-11-14T05:11:16;30.98;;;18.35;;
52386;SDS011;38317;53.084;6.960;2022-11-14T05:13:43;31.45;;;18.58;;
52386;SDS011;38317;53.084;6.960;2022-11-14T05:16:09;35.33;;;19.30;;
52386;SDS011;38317;53.084;6.960;2022-11-14T05:18:35;30.88;;;17.17;;
52386;SDS011;38317;53.084;6.960;2022-11-14T05:21:01;32.58;;;18.35;;
52386;SDS011;38317;53.084;6.960;2022-11-14T05:23:27;30.77;;;18.48;;
52386;SDS011;38317;53.084;6.960;2022-11-14T05:26:04;32.05;;;17.77;;
52386;SDS011;38317;53.084;6.960;2022-11-14T05:28:32;31.67;;;16.40;;
52386;SDS011;38317;53.084;6.960;2022-11-14T05:31:08;33.13;;;18.83;;
52386;SDS011;38317;53.084;6.960;2022-11-14T05:33:37;31.33;;;17.50;;
52386;SDS011;38317;53.084;6.960;2022-11-14T05:36:10;29.77;;;17.23;;
52386;SDS011;38317;53.084;6.960;2022-11-14T05:38:37;32.80;;;17.83;;
52386;SDS011;38317;53.084;6.960;2022-11-14T05:41:36;32.88;;;19.60;;
52386;SDS011;38317;53.084;6.960;2022-11-14T05:43:55;34.42;;;19.52;;
52386;SDS011;38317;53.084;6.960;2022-11-14T05:46:21;28.30;;;16.90;;
52386;SDS011;38317;53.084;6.960;2022-11-14T05:48:47;30.98;;;17.58;;
52386;SDS011;38317;53.084;6.960;2022-11-14T05:51:12;35.25;;;19.13;;
52386;SDS011;38317;53.084;6.960;2022-11-14T05:53:38;32.63;;;18.42;;
52386;SDS011;38317;53.084;6.960;2022-11-14T05:56:06;28.77;;;16.80;;
52386;SDS011;38317;53.084;6.960;2022-11-14T05:58:34;33.20;;;18.60;;
52386;SDS011;38317;53.084;6.960;2022-11-14T06:01:05;33.55;;;18.08;;
52386;SDS011;38317;53.084;6.960;2022-11-14T06:03:39;30.42;;;16.33;;
52386;SDS011;38317;53.084;6.960;2022-11-14T06:06:07;33.08;;;18.08;;
52386;SDS011;38317;53.084;6.960;2022-11-14T06:08:35;30.75;;;16.67;;
52386;SDS011;38317;53.084;6.960;2022-11-14T06:11:05;30.88;;;17.27;;
52386;SDS011;38317;53.084;6.960;2022-11-14T06:13:35;30.15;;;17.58;;
52386;SDS011;38317;53.084;6.960;2022-11-14T06:16:19;32.33;;;17.48;;
52386;SDS011;38317;53.084;6.960;2022-11-14T06:18:45;34.10;;;16.75;;
52386;SDS011;38317;53.084;6.960;2022-11-14T06:23:38;34.33;;;19.50;;
52386;SDS011;38317;53.084;6.960;2022-11-14T06:26:05;33.25;;;18.20;;
52386;SDS011;38317;53.084;6.960;2022-11-14T06:28:34;35.97;;;19.63;;
52386;SDS011;38317;53.084;6.960;2022-11-14T06:31:01;33.85;;;17.65;;
52386;SDS011;38317;53.084;6.960;2022-11-14T06:33:28;31.70;;;16.00;;
52386;SDS011;38317;53.084;6.960;2022-11-14T06:35:58;31.98;;;17.15;;
52386;SDS011;38317;53.084;6.960;2022-11-14T06:38:26;36.00;;;18.95;;
52386;SDS011;38317;53.084;6.960;2022-11-14T06:40:52;40.92;;;19.50;;
52386;SDS011;38317;53.084;6.960;2022-11-14T06:43:36;35.08;;;19.23;;
52386;SDS011;38317;53.084;6.960;2022-11-14T06:46:03;32.60;;;17.35;;
52386;SDS011;38317;53.084;6.960;2022-11-14T06:48:30;35.33;;;19.10;;
52386;SDS011;38317;53.084;6.960;2022-11-14T06:50:57;30.20;;;17.90;;
52386;SDS011;38317;53.084;6.960;2022-11-14T06:53:24;33.92;;;19.23;;
52386;SDS011;38317;53.084;6.960;2022-11-14T06:55:58;34.03;;;17.58;;
52386;SDS011;38317;53.084;6.960;2022-11-14T06:58:30;33.25;;;17.45;;
52386;SDS011;38317;53.084;6.960;2022-11-14T07:01:02;36.42;;;19.77;;
52386;SDS011;38317;53.084;6.960;2022-11-14T07:03:32;30.75;;;15.73;;
52386;SDS011;38317;53.084;6.960;2022-11-14T07:05:59;35.50;;;18.60;;
52386;SDS011;38317;53.084;6.960;2022-11-14T07:08:25;34.33;;;18.25;;
52386;SDS011;38317;53.084;6.960;2022-11-14T07:10:52;39.35;;;21.27;;
52386;SDS011;38317;53.084;6.960;2022-11-14T07:13:18;32.83;;;17.85;;
52386;SDS011;38317;53.084;6.960;2022-11-14T07:15:52;35.42;;;19.15;;
52386;SDS011;38317;53.084;6.960;2022-11-14T07:18:19;32.50;;;17.65;;
52386;SDS011;38317;53.084;6.960;2022-11-14T07:20:45;35.22;;;16.83;;
52386;SDS011;38317;53.084;6.960;2022-11-14T07:23:11;31.85;;;17.13;;
52386;SDS011;38317;53.084;6.960;2022-11-14T07:25:38;34.20;;;18.27;;
52386;SDS011;38317;53.084;6.960;2022-11-14T07:28:04;32.08;;;18.10;;
52386;SDS011;38317;53.084;6.960;2022-11-14T07:30:31;32.15;;;17.73;;
52386;SDS011;38317;53.084;6.960;2022-11-14T07:32:58;33.00;;;17.98;;
52386;SDS011;38317;53.084;6.960;2022-11-14T07:35:24;30.02;;;16.33;;
52386;SDS011;38317;53.084;6.960;2022-11-14T07:37:50;30.70;;;15.13;;
52386;SDS011;38317;53.084;6.960;2022-11-14T07:40:16;32.65;;;16.65;;
52386;SDS011;38317;53.084;6.960;2022-11-14T07:42:42;32.00;;;16.90;;
52386;SDS011;38317;53.084;6.960;2022-11-14T07:45:08;33.53;;;17.42;;
52386;SDS011;38317;53.084;6.960;2022-11-14T07:47:34;29.70;;;15.82;;
52386;SDS011;38317;53.084;6.960;2022-11-14T07:50:00;30.40;;;16.08;;
52386;SDS011;38317;53.084;6.960;2022-11-14T07:52:26;30.27;;;15.60;;
52386;SDS011;38317;53.084;6.960;2022-11-14T07:54:52;33.08;;;18.52;;
52386;SDS011;38317;53.084;6.960;2022-11-14T07:57:18;31.05;;;15.18;;
52386;SDS011;38317;53.084;6.960;2022-11-14T07:59:43;31.02;;;16.73;;
52386;SDS011;38317;53.084;6.960;2022-11-14T08:02:11;29.35;;;16.77;;
52386;SDS011;38317;53.084;6.960;2022-11-14T08:04:38;32.35;;;16.92;;
52386;SDS011;38317;53.084;6.960;2022-11-14T08:07:07;32.95;;;16.83;;
52386;SDS011;38317;53.084;6.960;2022-11-14T08:09:33;31.17;;;17.15;;
52386;SDS011;38317;53.084;6.960;2022-11-14T08:12:00;30.15;;;16.95;;
52386;SDS011;38317;53.084;6.960;2022-11-14T08:14:25;30.35;;;16.58;;
52386;SDS011;38317;53.084;6.960;2022-11-14T08:16:52;29.08;;;15.77;;
52386;SDS011;38317;53.084;6.960;2022-11-14T08:19:17;34.38;;;18.02;;
52386;SDS011;38317;53.084;6.960;2022-11-14T08:21:43;34.05;;;17.45;;
52386;SDS011;38317;53.084;6.960;2022-11-14T08:24:09;33.38;;;17.58;;
52386;SDS011;38317;53.084;6.960;2022-11-14T08:26:35;35.25;;;19.90;;
52386;SDS011;38317;53.084;6.960;2022-11-14T08:29:00;32.97;;;18.45;;
52386;SDS011;38317;53.084;6.960;2022-11-14T08:31:26;33.90;;;17.58;;
52386;SDS011;38317;53.084;6.960;2022-11-14T08:33:52;28.23;;;15.07;;
52386;SDS011;38317;53.084;6.960;2022-11-14T08:36:18;36.72;;;20.00;;
52386;SDS011;38317;53.084;6.960;2022-11-14T08:38:44;28.85;;;15.50;;
52386;SDS011;38317;53.084;6.960;2022-11-14T08:41:10;31.98;;;17.88;;
52386;SDS011;38317;53.084;6.960;2022-11-14T08:43:35;31.50;;;17.98;;
52386;SDS011;38317;53.084;6.960;2022-11-14T08:46:02;31.02;;;17.23;;
52386;SDS011;38317;53.084;6.960;2022-11-14T08:48:29;28.80;;;16.92;;
52386;SDS011;38317;53.084;6.960;2022-11-14T08:50:56;31.08;;;17.88;;
52386;SDS011;38317;53.084;6.960;2022-11-14T08:53:25;30.40;;;16.27;;
52386;SDS011;38317;53.084;6.960;2022-11-14T08:55:51;30.65;;;18.35;;
52386;SDS011;38317;53.084;6.960;2022-11-14T08:58:17;32.85;;;17.58;;
52386;SDS011;38317;53.084;6.960;2022-11-14T09:00:42;31.08;;;16.70;;
52386;SDS011;38317;53.084;6.960;2022-11-14T09:03:09;31.08;;;17.17;;
52386;SDS011;38317;53.084;6.960;2022-11-14T09:05:38;31.20;;;17.52;;
52386;SDS011;38317;53.084;6.960;2022-11-14T09:08:04;32.13;;;17.05;;
52386;SDS011;38317;53.084;6.960;2022-11-14T09:10:30;31.45;;;17.65;;
52386;SDS011;38317;53.084;6.960;2022-11-14T09:12:59;35.05;;;19.73;;
52386;SDS011;38317;53.084;6.960;2022-11-14T09:15:29;30.90;;;18.25;;
52386;SDS011;38317;53.084;6.960;2022-11-14T09:17:55;29.88;;;15.90;;
52386;SDS011;38317;53.084;6.960;2022-11-14T09:20:22;31.45;;;16.85;;
52386;SDS011;38317;53.084;6.960;2022-11-14T09:22:49;32.97;;;18.80;;
52386;SDS011;38317;53.084;6.960;2022-11-14T09:25:18;27.60;;;16.10;;
52386;SDS011;38317;53.084;6.960;2022-11-14T09:27:44;34.65;;;17.17;;
52386;SDS011;38317;53.084;6.960;2022-11-14T09:30:10;29.85;;;17.58;;
52386;SDS011;38317;53.084;6.960;2022-11-14T09:32:38;30.80;;;17.63;;
52386;SDS011;38317;53.084;6.960;2022-11-14T09:35:04;32.40;;;17.45;;
52386;SDS011;38317;53.084;6.960;2022-11-14T09:37:30;30.05;;;17.30;;
52386;SDS011;38317;53.084;6.960;2022-11-14T09:39:55;31.05;;;17.95;;
52386;SDS011;38317;53.084;6.960;2022-11-14T09:44:54;30.75;;;19.15;;
52386;SDS011;38317;53.084;6.960;2022-11-14T09:47:23;32.80;;;18.83;;
52386;SDS011;38317;53.084;6.960;2022-11-14T09:49:54;30.02;;;16.23;;
52386;SDS011;38317;53.084;6.960;2022-11-14T09:54:57;28.42;;;17.27;;
52386;SDS011;38317;53.084;6.960;2022-11-14T09:57:26;30.90;;;18.95;;
52386;SDS011;38317;53.084;6.960;2022-11-14T09:59:53;32.90;;;19.17;;
52386;SDS011;38317;53.084;6.960;2022-11-14T10:27:01;29.80;;;17.02;;
52386;SDS011;38317;53.084;6.960;2022-11-14T10:29:45;29.38;;;17.27;;
52386;SDS011;38317;53.084;6.960;2022-11-14T10:37:32;29.92;;;17.00;;
52386;SDS011;38317;53.084;6.960;2022-11-14T10:42:57;28.20;;;16.83;;
52386;SDS011;38317;53.084;6.960;2022-11-14T10:45:30;31.02;;;17.77;;
52386;SDS011;38317;53.084;6.960;2022-11-14T10:50:58;27.83;;;15.77;;
52386;SDS011;38317;53.084;6.960;2022-11-14T10:53:52;26.55;;;15.82;;
52386;SDS011;38317;53.084;6.960;2022-11-14T10:56:22;29.97;;;18.57;;
52386;SDS011;38317;53.084;6.960;2022-11-14T10:58:48;27.38;;;16.30;;
52386;SDS011;38317;53.084;6.960;2022-11-14T11:04:11;27.20;;;16.27;;
52386;SDS011;38317;53.084;6.960;2022-11-14T11:09:31;29.00;;;17.02;;
52386;SDS011;38317;53.084;6.960;2022-11-14T11:12:21;25.85;;;15.82;;
52386;SDS011;38317;53.084;6.960;2022-11-14T11:15:15;27.75;;;16.33;;
52386;SDS011;38317;53.084;6.960;2022-11-14T11:21:08;25.10;;;15.48;;
52386;SDS011;38317;53.084;6.960;2022-11-14T11:23:36;26.08;;;16.33;;
52386;SDS011;38317;53.084;6.960;2022-11-14T11:28:59;26.45;;;16.15;;
52386;SDS011;38317;53.084;6.960;2022-11-14T11:31:51;27.63;;;16.83;;
52386;SDS011;38317;53.084;6.960;2022-11-14T11:34:32;25.17;;;14.48;;
52386;SDS011;38317;53.084;6.960;2022-11-14T11:37:08;27.10;;;16.35;;
52386;SDS011;38317;53.084;6.960;2022-11-14T11:39:49;27.35;;;15.68;;
52386;SDS011;38317;53.084;6.960;2022-11-14T11:42:20;24.63;;;14.45;;
52386;SDS011;38317;53.084;6.960;2022-11-14T11:45:00;23.58;;;14.82;;
52386;SDS011;38317;53.084;6.960;2022-11-14T11:47:29;25.20;;;15.10;;
52386;SDS011;38317;53.084;6.960;2022-11-14T11:50:00;26.45;;;14.98;;
52386;SDS011;38317;53.084;6.960;2022-11-14T11:52:29;26.83;;;15.35;;
52386;SDS011;38317;53.084;6.960;2022-11-14T11:55:21;23.77;;;13.65;;
52386;SDS011;38317;53.084;6.960;2022-11-14T12:00:24;23.88;;;13.68;;
52386;SDS011;38317;53.084;6.960;2022-11-14T12:02:50;25.08;;;15.05;;
52386;SDS011;38317;53.084;6.960;2022-11-14T12:05:37;22.70;;;13.88;;
52386;SDS011;38317;53.084;6.960;2022-11-14T12:11:20;23.92;;;14.10;;
52386;SDS011;38317;53.084;6.960;2022-11-14T12:27:18;24.88;;;14.35;;
52386;SDS011;38317;53.084;6.960;2022-11-14T12:30:08;27.02;;;15.43;;
52386;SDS011;38317;53.084;6.960;2022-11-14T12:32:51;23.58;;;14.32;;
52386;SDS011;38317;53.084;6.960;2022-11-14T12:35:23;24.48;;;14.13;;
52386;SDS011;38317;53.084;6.960;2022-11-14T12:38:01;22.77;;;14.02;;
52386;SDS011;38317;53.084;6.960;2022-11-14T12:40:35;22.05;;;13.48;;
52386;SDS011;38317;53.084;6.960;2022-11-14T12:43:04;22.75;;;13.32;;
52386;SDS011;38317;53.084;6.960;2022-11-14T12:50:54;21.95;;;12.73;;
52386;SDS011;38317;53.084;6.960;2022-11-14T13:04:52;22.10;;;12.60;;
52386;SDS011;38317;53.084;6.960;2022-11-14T13:21:21;21.15;;;12.60;;
52386;SDS011;38317;53.084;6.960;2022-11-14T13:24:15;23.65;;;13.35;;
52386;SDS011;38317;53.084;6.960;2022-11-14T13:26:46;21.98;;;12.90;;
52386;SDS011;38317;53.084;6.960;2022-11-14T13:52:14;22.00;;;12.77;;
52386;SDS011;38317;53.084;6.960;2022-11-14T13:54:47;23.58;;;13.77;;
52386;SDS011;38317;53.084;6.960;2022-11-14T14:00:15;20.58;;;12.05;;
52386;SDS011;38317;53.084;6.960;2022-11-14T14:05:33;22.20;;;12.88;;
52386;SDS011;38317;53.084;6.960;2022-11-14T14:10:40;17.83;;;10.75;;
52386;SDS011;38317;53.084;6.960;2022-11-14T14:15:43;20.88;;;11.90;;
52386;SDS011;38317;53.084;6.960;2022-11-14T14:21:08;19.50;;;10.95;;
52386;SDS011;38317;53.084;6.960;2022-11-14T14:26:52;20.35;;;11.38;;
52386;SDS011;38317;53.084;6.960;2022-11-14T14:32:29;20.80;;;11.23;;
52386;SDS011;38317;53.084;6.960;2022-11-14T14:34:55;18.15;;;10.70;;
52386;SDS011;38317;53.084;6.960;2022-11-14T14:37:24;18.48;;;10.85;;
52386;SDS011;38317;53.084;6.960;2022-11-14T14:39:55;19.75;;;11.85;;
52386;SDS011;38317;53.084;6.960;2022-11-14T14:42:23;20.20;;;12.23;;
52386;SDS011;38317;53.084;6.960;2022-11-14T14:44:50;18.17;;;11.30;;
52386;SDS011;38317;53.084;6.960;2022-11-14T14:47:38;18.30;;;10.32;;
52386;SDS011;38317;53.084;6.960;2022-11-14T14:50:05;16.90;;;10.20;;
52386;SDS011;38317;53.084;6.960;2022-11-14T14:52:59;17.33;;;10.43;;
52386;SDS011;38317;53.084;6.960;2022-11-14T14:55:28;15.98;;;9.73;;
52386;SDS011;38317;53.084;6.960;2022-11-14T14:58:11;15.73;;;9.98;;
52386;SDS011;38317;53.084;6.960;2022-11-14T15:03:37;16.80;;;10.27;;
52386;SDS011;38317;53.084;6.960;2022-11-14T15:09:07;18.30;;;10.38;;
52386;SDS011;38317;53.084;6.960;2022-11-14T15:11:34;17.73;;;10.65;;
52386;SDS011;38317;53.084;6.960;2022-11-14T15:14:00;17.35;;;10.05;;
52386;SDS011;38317;53.084;6.960;2022-11-14T15:16:27;17.70;;;10.23;;
52386;SDS011;38317;53.084;6.960;2022-11-14T15:18:54;16.63;;;10.05;;
52386;SDS011;38317;53.084;6.960;2022-11-14T15:23:57;18.07;;;10.53;;
52386;SDS011;38317;53.084;6.960;2022-11-14T15:26:24;18.15;;;11.05;;
52386;SDS011;38317;53.084;6.960;2022-11-14T15:28:52;17.08;;;10.20;;
52386;SDS011;38317;53.084;6.960;2022-11-14T15:32:00;17.02;;;9.88;;
52386;SDS011;38317;53.084;6.960;2022-11-14T15:39:41;17.50;;;10.25;;
52386;SDS011;38317;53.084;6.960;2022-11-14T15:44:42;17.02;;;10.05;;
52386;SDS011;38317;53.084;6.960;2022-11-14T15:47:11;17.50;;;10.20;;
52386;SDS011;38317;53.084;6.960;2022-11-14T15:50:48;16.52;;;9.73;;
52386;SDS011;38317;53.084;6.960;2022-11-14T15:52:39;16.45;;;9.73;;
52386;SDS011;38317;53.084;6.960;2022-11-14T15:55:14;18.80;;;10.93;;
52386;SDS011;38317;53.084;6.960;2022-11-14T15:57:41;18.27;;;11.30;;
52386;SDS011;38317;53.084;6.960;2022-11-14T16:00:10;18.70;;;10.40;;
52386;SDS011;38317;53.084;6.960;2022-11-14T16:02:40;18.05;;;10.55;;
52386;SDS011;38317;53.084;6.960;2022-11-14T16:05:13;19.70;;;11.25;;
52386;SDS011;38317;53.084;6.960;2022-11-14T16:07:40;17.67;;;10.10;;
52386;SDS011;38317;53.084;6.960;2022-11-14T16:10:13;18.25;;;11.07;;
52386;SDS011;38317;53.084;6.960;2022-11-14T16:12:41;19.02;;;11.80;;
52386;SDS011;38317;53.084;6.960;2022-11-14T16:15:07;17.38;;;10.38;;
52386;SDS011;38317;53.084;6.960;2022-11-14T16:17:37;19.58;;;10.95;;
52386;SDS011;38317;53.084;6.960;2022-11-14T16:20:05;19.02;;;10.80;;
52386;SDS011;38317;53.084;6.960;2022-11-14T16:22:34;19.55;;;10.82;;
52386;SDS011;38317;53.084;6.960;2022-11-14T16:25:00;18.33;;;11.07;;
52386;SDS011;38317;53.084;6.960;2022-11-14T16:27:26;19.60;;;10.93;;
52386;SDS011;38317;53.084;6.960;2022-11-14T16:29:52;20.65;;;11.63;;
52386;SDS011;38317;53.084;6.960;2022-11-14T16:32:18;20.35;;;11.38;;
52386;SDS011;38317;53.084;6.960;2022-11-14T16:34:44;18.48;;;10.68;;
52386;SDS011;38317;53.084;6.960;2022-11-14T16:37:13;18.85;;;11.43;;
52386;SDS011;38317;53.084;6.960;2022-11-14T16:39:39;19.00;;;10.68;;
52386;SDS011;38317;53.084;6.960;2022-11-14T16:42:04;17.98;;;10.57;;
52386;SDS011;38317;53.084;6.960;2022-11-14T16:44:31;19.15;;;11.68;;
52386;SDS011;38317;53.084;6.960;2022-11-14T16:46:57;19.20;;;11.25;;
52386;SDS011;38317;53.084;6.960;2022-11-14T16:49:23;17.90;;;10.95;;
52386;SDS011;38317;53.084;6.960;2022-11-14T16:51:50;19.73;;;11.35;;
52386;SDS011;38317;53.084;6.960;2022-11-14T16:54:19;18.95;;;11.50;;
52386;SDS011;38317;53.084;6.960;2022-11-14T16:56:45;20.83;;;11.52;;
52386;SDS011;38317;53.084;6.960;2022-11-14T16:59:11;19.00;;;10.98;;
52386;SDS011;38317;53.084;6.960;2022-11-14T17:01:37;19.92;;;12.32;;
52386;SDS011;38317;53.084;6.960;2022-11-14T17:04:03;19.80;;;11.50;;
52386;SDS011;38317;53.084;6.960;2022-11-14T17:06:29;21.45;;;12.65;;
52386;SDS011;38317;53.084;6.960;2022-11-14T17:08:56;20.48;;;12.63;;
52386;SDS011;38317;53.084;6.960;2022-11-14T17:11:23;20.10;;;11.70;;
52386;SDS011;38317;53.084;6.960;2022-11-14T17:13:50;19.08;;;11.77;;
52386;SDS011;38317;53.084;6.960;2022-11-14T17:16:16;20.33;;;12.07;;
52386;SDS011;38317;53.084;6.960;2022-11-14T17:18:42;20.70;;;12.68;;